sensor_id;sensor_type;location;lat;lon;timestamp;pressure;altitude;pressure_sealevel;temperature;humidity
19576;BME280;41589;51.196;7.074;2024-03-06T00:03:30;99052.16;;;8.76;67.68
19576;BME280;41589;51.196;7.074;2024-03-06T00:08:30;99060.25;;;8.74;67.72
19576;BME280;41589;51.196;7.074;2024-03-06T00:13:31;99057.78;;;8.76;67.58
19576;BME280;41589;51.196;7.074;2024-03-06T00:18:31;99065.75;;;8.77;67.52
19576;BME280;41589;51.196;7.074;2024-03-06T00:23:32;99070.59;;;8.77;67.55
19576;BME280;41589;51.196;7.074;2024-03-06T00:28:33;99081.03;;;8.76;67.77
19576;BME280;41589;51.196;7.074;2024-03-06T00:33:34;99081.47;;;8.75;67.95
19576;BME280;41589;51.196;7.074;2024-03-06T00:38:34;99085.94;;;8.72;67.61
19576;BME280;41589;51.196;7.074;2024-03-06T00:43:34;99090.44;;;8.69;67.50
19576;BME280;41589;51.196;7.074;2024-03-06T00:48:34;99100.22;;;8.65;67.81
19576;BME280;41589;51.196;7.074;2024-03-06T00:53:35;99110.78;;;8.61;68.20
19576;BME280;41589;51.196;7.074;2024-03-06T00:58:35;99115.38;;;8.55;68.28
19576;BME280;41589;51.196;7.074;2024-03-06T01:03:37;99120.66;;;8.53;68.23
19576;BME280;41589;51.196;7.074;2024-03-06T01:08:37;99126.94;;;8.57;68.38
19576;BME280;41589;51.196;7.074;2024-03-06T01:13:38;99132.56;;;8.57;68.52
19576;BME280;41589;51.196;7.074;2024-03-06T01:18:38;99137.72;;;8.58;68.38
19576;BME280;41589;51.196;7.074;2024-03-06T01:23:38;99145.59;;;8.63;68.33
19576;BME280;41589;51.196;7.074;2024-03-06T01:28:39;99135.69;;;8.59;68.24
19576;BME280;41589;51.196;7.074;2024-03-06T01:33:39;99143.78;;;8.57;68.11
19576;BME280;41589;51.196;7.074;2024-03-06T01:38:40;99143.13;;;8.53;68.01
19576;BME280;41589;51.196;7.074;2024-03-06T01:43:40;99142.09;;;8.47;67.77
19576;BME280;41589;51.196;7.074;2024-03-06T01:48:41;99137.38;;;8.44;67.62
19576;BME280;41589;51.196;7.074;2024-03-06T01:53:43;99133.00;;;8.43;68.01
19576;BME280;41589;51.196;7.074;2024-03-06T01:58:45;99141.84;;;8.41;68.14
19576;BME280;41589;51.196;7.074;2024-03-06T02:03:46;99146.69;;;8.40;68.28
19576;BME280;41589;51.196;7.074;2024-03-06T02:08:47;99142.31;;;8.39;68.20
19576;BME280;41589;51.196;7.074;2024-03-06T02:13:49;99152.28;;;8.40;68.17
19576;BME280;41589;51.196;7.074;2024-03-06T02:18:53;99146.34;;;8.38;68.30
19576;BME280;41589;51.196;7.074;2024-03-06T02:23:54;99149.59;;;8.37;68.23
19576;BME280;41589;51.196;7.074;2024-03-06T02:28:54;99151.50;;;8.40;68.70
19576;BME280;41589;51.196;7.074;2024-03-06T02:33:55;99153.19;;;8.37;68.38
19576;BME280;41589;51.196;7.074;2024-03-06T02:38:55;99156.44;;;8.36;68.46
19576;BME280;41589;51.196;7.074;2024-03-06T02:43:55;99155.22;;;8.37;68.27
19576;BME280;41589;51.196;7.074;2024-03-06T02:48:56;99146.47;;;8.35;67.89
19576;BME280;41589;51.196;7.074;2024-03-06T02:53:56;99154.09;;;8.34;68.29
19576;BME280;41589;51.196;7.074;2024-03-06T02:58:56;99152.16;;;8.31;68.01
19576;BME280;41589;51.196;7.074;2024-03-06T03:03:57;99160.94;;;8.33;68.62
19576;BME280;41589;51.196;7.074;2024-03-06T03:08:58;99160.03;;;8.36;68.25
19576;BME280;41589;51.196;7.074;2024-03-06T03:13:58;99167.66;;;8.36;68.64
19576;BME280;41589;51.196;7.074;2024-03-06T03:18:58;99163.50;;;8.40;68.24
19576;BME280;41589;51.196;7.074;2024-03-06T03:23:59;99166.66;;;8.43;68.91
19576;BME280;41589;51.196;7.074;2024-03-06T03:28:59;99172.50;;;8.48;69.12
19576;BME280;41589;51.196;7.074;2024-03-06T03:33:59;99178.34;;;8.54;69.67
19576;BME280;41589;51.196;7.074;2024-03-06T03:39:00;99173.66;;;8.63;69.51
19576;BME280;41589;51.196;7.074;2024-03-06T03:44:00;99191.94;;;8.68;69.89
19576;BME280;41589;51.196;7.074;2024-03-06T03:49:00;99185.53;;;8.67;69.86
19576;BME280;41589;51.196;7.074;2024-03-06T03:54:02;99186.88;;;8.76;69.82
19576;BME280;41589;51.196;7.074;2024-03-06T03:59:02;99192.38;;;8.79;70.23
19576;BME280;41589;51.196;7.074;2024-03-06T04:04:03;99196.66;;;8.84;70.23
19576;BME280;41589;51.196;7.074;2024-03-06T04:09:03;99197.31;;;8.88;70.55
19576;BME280;41589;51.196;7.074;2024-03-06T04:14:05;99214.63;;;8.86;70.20
19576;BME280;41589;51.196;7.074;2024-03-06T04:19:08;99209.34;;;8.88;70.17
19576;BME280;41589;51.196;7.074;2024-03-06T04:24:09;99209.66;;;8.90;69.86
19576;BME280;41589;51.196;7.074;2024-03-06T04:29:10;99219.91;;;8.84;69.87
19576;BME280;41589;51.196;7.074;2024-03-06T04:34:10;99226.06;;;8.79;70.30
19576;BME280;41589;51.196;7.074;2024-03-06T04:39:10;99234.47;;;8.79;70.18
19576;BME280;41589;51.196;7.074;2024-03-06T04:44:12;99240.09;;;8.79;70.42
19576;BME280;41589;51.196;7.074;2024-03-06T04:49:12;99233.69;;;8.79;70.48
19576;BME280;41589;51.196;7.074;2024-03-06T04:54:13;99244.81;;;8.82;71.03
19576;BME280;41589;51.196;7.074;2024-03-06T04:59:13;99245.94;;;8.85;70.67
19576;BME280;41589;51.196;7.074;2024-03-06T05:04:14;99260.66;;;8.89;70.93
19576;BME280;41589;51.196;7.074;2024-03-06T05:09:15;99260.19;;;8.90;70.78
19576;BME280;41589;51.196;7.074;2024-03-06T05:14:15;99276.59;;;8.79;70.85
19576;BME280;41589;51.196;7.074;2024-03-06T05:19:15;99270.75;;;8.86;70.85
19576;BME280;41589;51.196;7.074;2024-03-06T05:24:16;99273.91;;;8.88;70.61
19576;BME280;41589;51.196;7.074;2024-03-06T05:29:16;99288.28;;;8.90;70.61
19576;BME280;41589;51.196;7.074;2024-03-06T05:34:17;99278.16;;;8.93;70.45
19576;BME280;41589;51.196;7.074;2024-03-06T05:39:17;99278.63;;;8.91;70.40
19576;BME280;41589;51.196;7.074;2024-03-06T05:44:17;99284.22;;;8.91;70.80
19576;BME280;41589;51.196;7.074;2024-03-06T05:49:18;99284.34;;;8.88;70.59
19576;BME280;41589;51.196;7.074;2024-03-06T05:54:22;99295.56;;;8.88;71.08
19576;BME280;41589;51.196;7.074;2024-03-06T05:59:22;99295.25;;;8.86;71.29
19576;BME280;41589;51.196;7.074;2024-03-06T06:04:24;99303.53;;;8.89;71.09
19576;BME280;41589;51.196;7.074;2024-03-06T06:09:25;99305.69;;;8.85;71.12
19576;BME280;41589;51.196;7.074;2024-03-06T06:14:26;99313.19;;;8.88;71.37
19576;BME280;41589;51.196;7.074;2024-03-06T06:19:27;99328.03;;;8.89;70.97
19576;BME280;41589;51.196;7.074;2024-03-06T06:24:27;99342.19;;;8.85;70.75
19576;BME280;41589;51.196;7.074;2024-03-06T06:29:27;99341.13;;;8.79;70.75
19576;BME280;41589;51.196;7.074;2024-03-06T06:34:29;99343.28;;;8.75;70.77
19576;BME280;41589;51.196;7.074;2024-03-06T06:39:29;99358.72;;;8.67;70.76
19576;BME280;41589;51.196;7.074;2024-03-06T06:44:30;99358.13;;;8.59;71.35
19576;BME280;41589;51.196;7.074;2024-03-06T06:49:30;99364.69;;;8.69;71.47
19576;BME280;41589;51.196;7.074;2024-03-06T06:54:30;99374.72;;;8.83;71.88
19576;BME280;41589;51.196;7.074;2024-03-06T06:59:31;99380.13;;;8.90;71.59
19576;BME280;41589;51.196;7.074;2024-03-06T07:04:32;99386.00;;;8.95;71.75
19576;BME280;41589;51.196;7.074;2024-03-06T07:09:32;99380.06;;;9.06;72.41
19576;BME280;41589;51.196;7.074;2024-03-06T07:14:32;99394.31;;;9.12;72.01
19576;BME280;41589;51.196;7.074;2024-03-06T07:19:33;99395.44;;;9.14;72.27
19576;BME280;41589;51.196;7.074;2024-03-06T07:24:33;99398.63;;;9.29;72.46
19576;BME280;41589;51.196;7.074;2024-03-06T07:29:34;99400.31;;;9.26;71.96
19576;BME280;41589;51.196;7.074;2024-03-06T07:34:34;99405.25;;;9.35;73.07
19576;BME280;41589;51.196;7.074;2024-03-06T07:39:35;99421.44;;;9.44;73.11
19576;BME280;41589;51.196;7.074;2024-03-06T07:44:35;99425.63;;;9.52;72.69
19576;BME280;41589;51.196;7.074;2024-03-06T07:49:36;99434.97;;;9.62;73.11
19576;BME280;41589;51.196;7.074;2024-03-06T07:54:36;99430.78;;;9.66;72.65
19576;BME280;41589;51.196;7.074;2024-03-06T07:59:36;99438.47;;;9.78;72.66
19576;BME280;41589;51.196;7.074;2024-03-06T08:04:37;99442.28;;;9.84;72.86
19576;BME280;41589;51.196;7.074;2024-03-06T08:09:37;99444.66;;;9.86;72.34
19576;BME280;41589;51.196;7.074;2024-03-06T08:14:37;99455.69;;;9.93;72.63
19576;BME280;41589;51.196;7.074;2024-03-06T08:19:38;99465.56;;;9.98;72.25
19576;BME280;41589;51.196;7.074;2024-03-06T08:24:38;99469.16;;;9.98;71.64
19576;BME280;41589;51.196;7.074;2024-03-06T08:29:39;99471.66;;;9.96;72.06
19576;BME280;41589;51.196;7.074;2024-03-06T08:34:39;99479.22;;;9.99;72.00
19576;BME280;41589;51.196;7.074;2024-03-06T08:39:39;99489.41;;;10.06;72.57
19576;BME280;41589;51.196;7.074;2024-03-06T08:44:39;99492.81;;;10.13;72.38
19576;BME280;41589;51.196;7.074;2024-03-06T08:49:40;99502.69;;;10.18;72.49
19576;BME280;41589;51.196;7.074;2024-03-06T08:54:41;99501.69;;;10.25;72.04
19576;BME280;41589;51.196;7.074;2024-03-06T08:59:41;99500.00;;;10.14;72.26
19576;BME280;41589;51.196;7.074;2024-03-06T09:04:43;99511.91;;;10.19;72.02
19576;BME280;41589;51.196;7.074;2024-03-06T09:09:43;99515.63;;;10.28;72.38
19576;BME280;41589;51.196;7.074;2024-03-06T09:14:44;99517.31;;;10.26;71.80
19576;BME280;41589;51.196;7.074;2024-03-06T09:19:45;99522.41;;;10.31;71.99
19576;BME280;41589;51.196;7.074;2024-03-06T09:24:45;99524.50;;;10.39;72.33
19576;BME280;41589;51.196;7.074;2024-03-06T09:29:46;99524.84;;;10.54;71.82
19576;BME280;41589;51.196;7.074;2024-03-06T09:34:47;99528.88;;;10.53;72.12
19576;BME280;41589;51.196;7.074;2024-03-06T09:39:48;99533.84;;;10.49;71.69
19576;BME280;41589;51.196;7.074;2024-03-06T09:44:48;99535.53;;;10.47;71.91
19576;BME280;41589;51.196;7.074;2024-03-06T09:49:51;99540.13;;;10.66;71.61
19576;BME280;41589;51.196;7.074;2024-03-06T09:54:54;99551.84;;;10.99;71.85
19576;BME280;41589;51.196;7.074;2024-03-06T09:59:55;99552.19;;;11.01;70.44
19576;BME280;41589;51.196;7.074;2024-03-06T10:04:55;99555.00;;;11.01;70.99
19576;BME280;41589;51.196;7.074;2024-03-06T10:09:55;99559.22;;;11.31;71.28
19576;BME280;41589;51.196;7.074;2024-03-06T10:14:56;99562.88;;;11.84;70.80
19576;BME280;41589;51.196;7.074;2024-03-06T10:20:22;99559.31;;;11.93;69.30
19576;BME280;41589;51.196;7.074;2024-03-06T10:25:24;99564.50;;;11.95;69.76
19576;BME280;41589;51.196;7.074;2024-03-06T10:30:24;99563.06;;;12.52;69.51
19576;BME280;41589;51.196;7.074;2024-03-06T10:35:24;99565.66;;;12.96;68.60
19576;BME280;41589;51.196;7.074;2024-03-06T10:40:26;99558.31;;;13.08;67.27
19576;BME280;41589;51.196;7.074;2024-03-06T10:45:46;99560.03;;;13.51;67.38
19576;BME280;41589;51.196;7.074;2024-03-06T10:50:48;99558.00;;;13.70;66.68
19576;BME280;41589;51.196;7.074;2024-03-06T10:55:50;99564.44;;;14.31;66.38
19576;BME280;41589;51.196;7.074;2024-03-06T11:00:51;99562.44;;;14.88;65.25
19576;BME280;41589;51.196;7.074;2024-03-06T11:05:51;99565.78;;;15.25;63.64
19576;BME280;41589;51.196;7.074;2024-03-06T11:10:52;99568.50;;;15.44;62.64
19576;BME280;41589;51.196;7.074;2024-03-06T11:15:53;99567.56;;;15.62;61.86
19576;BME280;41589;51.196;7.074;2024-03-06T11:26:20;99566.59;;;16.09;59.52
19576;BME280;41589;51.196;7.074;2024-03-06T11:31:20;99564.25;;;15.78;58.58
19576;BME280;41589;51.196;7.074;2024-03-06T11:36:26;99571.09;;;15.71;58.25
19576;BME280;41589;51.196;7.074;2024-03-06T11:41:30;99572.31;;;16.24;57.25
19576;BME280;41589;51.196;7.074;2024-03-06T11:51:41;99564.31;;;16.92;52.75
19576;BME280;41589;51.196;7.074;2024-03-06T11:56:45;99573.13;;;17.35;53.58
19576;BME280;41589;51.196;7.074;2024-03-06T12:01:54;99568.41;;;17.52;53.08
19576;BME280;41589;51.196;7.074;2024-03-06T12:06:58;99561.44;;;17.74;51.96
19576;BME280;41589;51.196;7.074;2024-03-06T12:12:00;99560.31;;;17.45;51.58
19576;BME280;41589;51.196;7.074;2024-03-06T12:17:01;99561.38;;;17.27;51.38
19576;BME280;41589;51.196;7.074;2024-03-06T12:22:04;99573.97;;;17.00;50.87
19576;BME280;41589;51.196;7.074;2024-03-06T12:27:08;99574.16;;;16.62;50.65
19576;BME280;41589;51.196;7.074;2024-03-06T12:32:16;99582.19;;;16.13;50.53
19576;BME280;41589;51.196;7.074;2024-03-06T12:37:17;99573.09;;;15.56;50.59
19576;BME280;41589;51.196;7.074;2024-03-06T12:42:18;99573.97;;;15.47;50.55
19576;BME280;41589;51.196;7.074;2024-03-06T12:47:18;99572.38;;;14.84;50.58
19576;BME280;41589;51.196;7.074;2024-03-06T12:52:18;99570.81;;;14.83;51.08
19576;BME280;41589;51.196;7.074;2024-03-06T12:57:19;99569.59;;;14.41;51.66
19576;BME280;41589;51.196;7.074;2024-03-06T13:02:19;99567.69;;;14.05;51.01
19576;BME280;41589;51.196;7.074;2024-03-06T13:07:20;99564.88;;;13.96;52.23
19576;BME280;41589;51.196;7.074;2024-03-06T13:12:20;99574.78;;;13.92;52.14
19576;BME280;41589;51.196;7.074;2024-03-06T13:17:20;99572.09;;;13.97;51.60
19576;BME280;41589;51.196;7.074;2024-03-06T13:22:20;99567.38;;;13.94;50.94
19576;BME280;41589;51.196;7.074;2024-03-06T13:27:22;99570.56;;;13.87;51.37
19576;BME280;41589;51.196;7.074;2024-03-06T13:32:22;99577.41;;;14.04;51.86
19576;BME280;41589;51.196;7.074;2024-03-06T13:37:22;99575.56;;;13.83;52.07
19576;BME280;41589;51.196;7.074;2024-03-06T13:42:23;99572.44;;;13.81;52.29
19576;BME280;41589;51.196;7.074;2024-03-06T13:47:24;99581.38;;;13.98;51.98
19576;BME280;41589;51.196;7.074;2024-03-06T13:52:24;99581.41;;;13.79;52.56
19576;BME280;41589;51.196;7.074;2024-03-06T13:57:25;99579.03;;;13.41;52.39
19576;BME280;41589;51.196;7.074;2024-03-06T14:02:25;99585.34;;;13.73;52.60
19576;BME280;41589;51.196;7.074;2024-03-06T14:07:25;99583.91;;;13.86;52.88
19576;BME280;41589;51.196;7.074;2024-03-06T14:12:26;99584.84;;;13.83;52.79
19576;BME280;41589;51.196;7.074;2024-03-06T14:17:26;99584.22;;;13.88;52.80
19576;BME280;41589;51.196;7.074;2024-03-06T14:22:26;99583.25;;;13.92;52.48
19576;BME280;41589;51.196;7.074;2024-03-06T14:27:27;99588.94;;;13.92;52.29
19576;BME280;41589;51.196;7.074;2024-03-06T14:32:28;99587.56;;;13.69;52.44
19576;BME280;41589;51.196;7.074;2024-03-06T14:37:28;99596.97;;;13.84;52.36
19576;BME280;41589;51.196;7.074;2024-03-06T14:42:28;99590.34;;;13.59;51.64
19576;BME280;41589;51.196;7.074;2024-03-06T14:47:29;99587.06;;;13.43;52.52
19576;BME280;41589;51.196;7.074;2024-03-06T14:52:29;99596.81;;;13.60;52.77
19576;BME280;41589;51.196;7.074;2024-03-06T14:57:30;99585.03;;;13.71;52.49
19576;BME280;41589;51.196;7.074;2024-03-06T15:02:30;99589.13;;;13.70;52.81
19576;BME280;41589;51.196;7.074;2024-03-06T15:07:31;99598.09;;;13.68;52.51
19576;BME280;41589;51.196;7.074;2024-03-06T15:12:31;99599.34;;;13.67;52.36
19576;BME280;41589;51.196;7.074;2024-03-06T15:17:32;99585.81;;;13.71;52.75
19576;BME280;41589;51.196;7.074;2024-03-06T15:22:32;99596.34;;;13.80;52.46
19576;BME280;41589;51.196;7.074;2024-03-06T15:27:33;99602.00;;;13.80;52.27
19576;BME280;41589;51.196;7.074;2024-03-06T15:32:34;99601.06;;;13.55;52.91
19576;BME280;41589;51.196;7.074;2024-03-06T15:37:35;99601.38;;;13.67;52.39
19576;BME280;41589;51.196;7.074;2024-03-06T15:42:36;99602.66;;;13.66;52.05
19576;BME280;41589;51.196;7.074;2024-03-06T15:47:36;99605.78;;;13.68;52.36
19576;BME280;41589;51.196;7.074;2024-03-06T15:52:38;99604.53;;;13.69;52.08
19576;BME280;41589;51.196;7.074;2024-03-06T15:57:38;99612.69;;;13.76;52.10
19576;BME280;41589;51.196;7.074;2024-03-06T16:02:39;99611.28;;;13.62;52.12
19576;BME280;41589;51.196;7.074;2024-03-06T16:07:40;99607.19;;;13.72;52.41
19576;BME280;41589;51.196;7.074;2024-03-06T16:12:40;99615.22;;;13.65;52.17
19576;BME280;41589;51.196;7.074;2024-03-06T16:17:40;99610.19;;;13.78;52.50
19576;BME280;41589;51.196;7.074;2024-03-06T16:22:41;99620.38;;;13.48;52.52
19576;BME280;41589;51.196;7.074;2024-03-06T16:27:41;99623.50;;;13.59;52.82
19576;BME280;41589;51.196;7.074;2024-03-06T16:32:41;99620.22;;;13.70;53.17
19576;BME280;41589;51.196;7.074;2024-03-06T16:37:42;99631.69;;;13.57;53.10
19576;BME280;41589;51.196;7.074;2024-03-06T16:42:43;99636.28;;;13.64;52.96
19576;BME280;41589;51.196;7.074;2024-03-06T16:47:43;99629.94;;;13.41;52.96
19576;BME280;41589;51.196;7.074;2024-03-06T16:52:44;99642.81;;;13.42;52.91
19576;BME280;41589;51.196;7.074;2024-03-06T16:57:44;99641.66;;;12.94;52.86
19576;BME280;41589;51.196;7.074;2024-03-06T17:02:44;99644.25;;;12.70;53.56
19576;BME280;41589;51.196;7.074;2024-03-06T17:07:44;99656.41;;;12.98;54.03
19576;BME280;41589;51.196;7.074;2024-03-06T17:12:45;99656.38;;;12.89;53.29
19576;BME280;41589;51.196;7.074;2024-03-06T17:17:45;99662.50;;;12.87;53.48
19576;BME280;41589;51.196;7.074;2024-03-06T17:22:45;99674.66;;;12.66;53.35
19576;BME280;41589;51.196;7.074;2024-03-06T17:27:46;99679.47;;;12.56;53.92
19576;BME280;41589;51.196;7.074;2024-03-06T17:32:46;99677.31;;;12.60;53.76
19576;BME280;41589;51.196;7.074;2024-03-06T17:37:46;99690.66;;;12.60;53.86
19576;BME280;41589;51.196;7.074;2024-03-06T17:42:47;99685.84;;;12.69;53.87
19576;BME280;41589;51.196;7.074;2024-03-06T17:47:47;99699.97;;;12.48;54.20
19576;BME280;41589;51.196;7.074;2024-03-06T17:52:48;99704.84;;;12.47;54.06
19576;BME280;41589;51.196;7.074;2024-03-06T17:57:48;99708.19;;;12.33;54.42
19576;BME280;41589;51.196;7.074;2024-03-06T18:02:48;99723.88;;;12.12;54.92
19576;BME280;41589;51.196;7.074;2024-03-06T18:07:50;99712.59;;;12.12;55.88
19576;BME280;41589;51.196;7.074;2024-03-06T18:12:50;99717.97;;;12.19;55.37
19576;BME280;41589;51.196;7.074;2024-03-06T18:17:51;99724.09;;;11.83;55.56
19576;BME280;41589;51.196;7.074;2024-03-06T18:22:52;99726.53;;;11.94;55.88
19576;BME280;41589;51.196;7.074;2024-03-06T18:27:52;99720.78;;;11.97;55.97
19576;BME280;41589;51.196;7.074;2024-03-06T18:32:53;99723.06;;;11.90;55.73
19576;BME280;41589;51.196;7.074;2024-03-06T18:37:53;99721.59;;;11.85;56.19
19576;BME280;41589;51.196;7.074;2024-03-06T18:42:53;99725.03;;;11.80;56.56
19576;BME280;41589;51.196;7.074;2024-03-06T18:47:54;99734.22;;;11.58;56.62
19576;BME280;41589;51.196;7.074;2024-03-06T18:52:54;99736.72;;;11.44;57.17
19576;BME280;41589;51.196;7.074;2024-03-06T18:57:54;99741.03;;;11.48;57.17
19576;BME280;41589;51.196;7.074;2024-03-06T19:02:55;99737.88;;;11.34;57.39
19576;BME280;41589;51.196;7.074;2024-03-06T19:07:56;99742.50;;;11.40;57.62
19576;BME280;41589;51.196;7.074;2024-03-06T19:12:57;99752.53;;;11.16;57.81
19576;BME280;41589;51.196;7.074;2024-03-06T19:17:57;99740.03;;;11.17;58.18
19576;BME280;41589;51.196;7.074;2024-03-06T19:22:58;99751.19;;;10.82;58.89
19576;BME280;41589;51.196;7.074;2024-03-06T19:27:58;99747.47;;;10.85;58.69
19576;BME280;41589;51.196;7.074;2024-03-06T19:32:58;99745.66;;;10.79;59.07
19576;BME280;41589;51.196;7.074;2024-03-06T19:37:59;99746.22;;;10.86;59.02
19576;BME280;41589;51.196;7.074;2024-03-06T19:42:59;99751.41;;;10.88;59.36
19576;BME280;41589;51.196;7.074;2024-03-06T19:47:59;99750.81;;;10.80;59.35
19576;BME280;41589;51.196;7.074;2024-03-06T19:52:59;99763.91;;;10.74;59.74
19576;BME280;41589;51.196;7.074;2024-03-06T19:58:00;99763.44;;;10.76;60.08
19576;BME280;41589;51.196;7.074;2024-03-06T20:03:00;99756.56;;;10.64;60.04
19576;BME280;41589;51.196;7.074;2024-03-06T20:08:02;99761.59;;;10.43;60.45
19576;BME280;41589;51.196;7.074;2024-03-06T20:13:04;99764.13;;;10.25;60.93
19576;BME280;41589;51.196;7.074;2024-03-06T20:18:04;99762.00;;;10.29;61.48
19576;BME280;41589;51.196;7.074;2024-03-06T20:23:08;99768.44;;;10.30;61.83
19576;BME280;41589;51.196;7.074;2024-03-06T20:28:09;99761.31;;;10.25;61.44
19576;BME280;41589;51.196;7.074;2024-03-06T20:33:10;99761.75;;;10.24;62.12
19576;BME280;41589;51.196;7.074;2024-03-06T20:38:10;99766.59;;;10.23;62.23
19576;BME280;41589;51.196;7.074;2024-03-06T20:43:11;99763.78;;;10.23;62.39
19576;BME280;41589;51.196;7.074;2024-03-06T20:48:12;99765.16;;;10.31;62.52
19576;BME280;41589;51.196;7.074;2024-03-06T20:53:13;99757.97;;;10.30;62.44
19576;BME280;41589;51.196;7.074;2024-03-06T20:58:13;99757.50;;;10.32;62.23
19576;BME280;41589;51.196;7.074;2024-03-06T21:03:14;99747.72;;;10.36;62.10
19576;BME280;41589;51.196;7.074;2024-03-06T21:08:14;99758.19;;;10.36;61.98
19576;BME280;41589;51.196;7.074;2024-03-06T21:13:15;99753.13;;;10.31;62.25
19576;BME280;41589;51.196;7.074;2024-03-06T21:18:15;99756.34;;;10.29;62.25
19576;BME280;41589;51.196;7.074;2024-03-06T21:23:15;99754.22;;;10.21;62.21
19576;BME280;41589;51.196;7.074;2024-03-06T21:28:16;99756.59;;;10.22;62.46
19576;BME280;41589;51.196;7.074;2024-03-06T21:33:16;99756.59;;;10.22;61.82
19576;BME280;41589;51.196;7.074;2024-03-06T21:38:16;99758.81;;;10.14;62.14
19576;BME280;41589;51.196;7.074;2024-03-06T21:43:17;99759.09;;;10.04;62.34
19576;BME280;41589;51.196;7.074;2024-03-06T21:48:17;99759.22;;;10.00;62.87
19576;BME280;41589;51.196;7.074;2024-03-06T21:53:17;99760.69;;;10.05;62.94
19576;BME280;41589;51.196;7.074;2024-03-06T21:58:18;99754.38;;;10.01;62.93
19576;BME280;41589;51.196;7.074;2024-03-06T22:03:18;99761.66;;;9.98;62.78
19576;BME280;41589;51.196;7.074;2024-03-06T22:08:19;99765.34;;;9.95;63.00
19576;BME280;41589;51.196;7.074;2024-03-06T22:13:20;99757.38;;;9.94;62.62
19576;BME280;41589;51.196;7.074;2024-03-06T22:18:20;99759.13;;;9.88;62.65
19576;BME280;41589;51.196;7.074;2024-03-06T22:23:21;99763.72;;;9.81;62.81
19576;BME280;41589;51.196;7.074;2024-03-06T22:28:21;99750.53;;;9.78;62.73
19576;BME280;41589;51.196;7.074;2024-03-06T22:33:21;99760.56;;;9.79;62.84
19576;BME280;41589;51.196;7.074;2024-03-06T22:38:23;99762.75;;;9.72;62.69
19576;BME280;41589;51.196;7.074;2024-03-06T22:43:23;99763.72;;;9.65;62.82
19576;BME280;41589;51.196;7.074;2024-03-06T22:48:23;99762.75;;;9.55;62.99
19576;BME280;41589;51.196;7.074;2024-03-06T22:53:24;99764.53;;;9.49;63.31
19576;BME280;41589;51.196;7.074;2024-03-06T22:58:24;99760.22;;;9.45;63.68
19576;BME280;41589;51.196;7.074;2024-03-06T23:03:24;99767.50;;;9.42;63.31
19576;BME280;41589;51.196;7.074;2024-03-06T23:08:25;99762.34;;;9.41;63.53
19576;BME280;41589;51.196;7.074;2024-03-06T23:13:25;99762.00;;;9.39;63.93
19576;BME280;41589;51.196;7.074;2024-03-06T23:18:25;99772.88;;;9.37;63.84
19576;BME280;41589;51.196;7.074;2024-03-06T23:23:26;99770.59;;;9.32;63.76
19576;BME280;41589;51.196;7.074;2024-03-06T23:28:26;99771.53;;;9.25;63.83
19576;BME280;41589;51.196;7.074;2024-03-06T23:33:27;99773.66;;;9.21;64.10
19576;BME280;41589;51.196;7.074;2024-03-06T23:38:27;99780.75;;;9.09;63.94
19576;BME280;41589;51.196;7.074;2024-03-06T23:43:28;99778.63;;;8.97;63.51
19576;BME280;41589;51.196;7.074;2024-03-06T23:48:28;99783.19;;;8.91;64.35
19576;BME280;41589;51.196;7.074;2024-03-06T23:53:28;99787.66;;;8.88;64.66
19576;BME280;41589;51.196;7.074;2024-03-06T23:58:29;99791.94;;;8.93;64.04
